createdAt,value
2022-12-08T00:01:10.840Z,31.13
2022-12-08T00:03:38.271Z,29.92
2022-12-08T00:06:26.929Z,30.83
2022-12-08T00:09:12.223Z,34.30
2022-12-08T00:11:39.521Z,35.67
2022-12-08T00:14:06.188Z,37.13
2022-12-08T00:16:33.288Z,37.75
2022-12-08T00:18:59.971Z,36.80
2022-12-08T00:21:26.661Z,37.85
2022-12-08T00:23:56.123Z,36.83
2022-12-08T00:26:23.096Z,37.15
2022-12-08T00:28:49.801Z,38.58
2022-12-08T00:31:16.599Z,37.13
2022-12-08T00:33:43.413Z,37.60
2022-12-08T00:36:13.452Z,37.33
2022-12-08T00:38:41.419Z,38.10
2022-12-08T00:41:13.457Z,36.67
2022-12-08T00:43:40.276Z,36.47
2022-12-08T00:46:07.080Z,37.67
2022-12-08T00:48:34.069Z,37.70
2022-12-08T00:51:00.829Z,35.22
2022-12-08T00:53:27.631Z,36.65
2022-12-08T00:55:54.315Z,35.05
2022-12-08T00:58:21.059Z,37.97
2022-12-08T01:00:47.819Z,36.00
2022-12-08T01:03:15.280Z,35.63
2022-12-08T01:05:42.145Z,33.63
2022-12-08T01:08:09.262Z,34.03
2022-12-08T01:10:37.099Z,35.70
2022-12-08T01:13:04.517Z,35.60
2022-12-08T01:15:31.562Z,34.42
2022-12-08T01:17:58.287Z,33.95
2022-12-08T01:20:25.180Z,35.05
2022-12-08T01:22:52.266Z,33.70
2022-12-08T01:25:19.034Z,33.60
2022-12-08T01:27:45.744Z,34.63
2022-12-08T01:30:13.510Z,33.78
2022-12-08T01:32:40.285Z,33.00
2022-12-08T01:35:07.307Z,32.45
2022-12-08T01:37:34.244Z,32.97
2022-12-08T01:40:01.285Z,31.80
2022-12-08T01:42:29.882Z,34.45
2022-12-08T01:45:00.963Z,33.58
2022-12-08T01:47:41.424Z,32.80
2022-12-08T01:50:11.759Z,32.15
2022-12-08T01:52:44.639Z,32.53
2022-12-08T01:55:18.969Z,33.85
2022-12-08T01:57:50.769Z,32.95
2022-12-08T02:00:21.515Z,33.60
2022-12-08T02:03:23.308Z,30.98
2022-12-08T02:05:50.644Z,30.20
2022-12-08T02:08:18.238Z,29.95
2022-12-08T02:10:52.666Z,30.73
2022-12-08T02:13:21.538Z,28.95
2022-12-08T02:16:16.033Z,30.10
2022-12-08T02:19:07.994Z,30.83
2022-12-08T02:21:45.104Z,28.63
2022-12-08T02:24:30.322Z,28.33
2022-12-08T02:27:00.150Z,27.35
2022-12-08T02:29:51.079Z,30.35
2022-12-08T02:32:40.547Z,26.73
2022-12-08T02:35:14.506Z,27.38
2022-12-08T02:37:57.410Z,27.40
2022-12-08T02:40:33.997Z,26.38
2022-12-08T02:43:06.074Z,27.65
2022-12-08T02:45:45.453Z,26.77
2022-12-08T02:48:12.510Z,28.25
2022-12-08T02:50:39.466Z,28.23
2022-12-08T02:55:51.394Z,27.63
2022-12-08T02:58:53.025Z,28.20
2022-12-08T03:01:37.422Z,27.10
2022-12-08T03:04:29.725Z,25.98
2022-12-08T03:07:07.398Z,25.40
2022-12-08T03:09:43.469Z,26.05
2022-12-08T03:12:19.265Z,25.98
2022-12-08T03:14:51.047Z,28.23
2022-12-08T03:17:21.447Z,27.48
2022-12-08T03:19:49.234Z,24.98
2022-12-08T03:22:21.234Z,25.02
2022-12-08T03:24:49.301Z,26.55
2022-12-08T03:27:20.065Z,25.73
2022-12-08T03:29:48.478Z,27.15
2022-12-08T03:32:23.804Z,27.55
2022-12-08T03:34:53.025Z,28.83
2022-12-08T03:37:20.983Z,29.40
2022-12-08T03:39:48.506Z,29.95
2022-12-08T03:42:15.265Z,31.58
2022-12-08T03:44:41.994Z,31.55
2022-12-08T03:47:08.989Z,31.45
2022-12-08T03:49:35.703Z,31.38
2022-12-08T03:52:02.480Z,29.67
2022-12-08T03:54:29.207Z,29.75
2022-12-08T03:56:55.946Z,32.33
2022-12-08T03:59:22.649Z,31.35
2022-12-08T04:01:49.449Z,32.22
2022-12-08T04:04:16.287Z,30.27
2022-12-08T04:06:43.036Z,29.65
2022-12-08T04:09:09.824Z,28.40
2022-12-08T04:11:36.572Z,29.08
2022-12-08T04:14:03.370Z,29.00
2022-12-08T04:16:30.230Z,30.15
2022-12-08T04:18:57.020Z,27.90
2022-12-08T04:21:23.741Z,28.33
2022-12-08T04:23:51.033Z,29.17
2022-12-08T04:26:18.887Z,28.55
2022-12-08T04:28:45.588Z,29.80
2022-12-08T04:31:12.566Z,27.20
2022-12-08T04:33:39.714Z,29.60
2022-12-08T04:36:07.513Z,28.30
2022-12-08T04:38:34.799Z,28.50
2022-12-08T04:41:02.155Z,27.98
2022-12-08T04:43:29.044Z,30.63
2022-12-08T04:45:56.077Z,28.67
2022-12-08T04:48:22.963Z,27.50
2022-12-08T04:50:49.709Z,28.55
2022-12-08T04:53:16.544Z,28.65
2022-12-08T04:55:45.143Z,27.77
2022-12-08T04:58:13.821Z,26.08
2022-12-08T05:00:41.517Z,29.52
2022-12-08T05:03:09.117Z,29.23
2022-12-08T05:05:36.114Z,27.27
2022-12-08T05:08:03.138Z,26.98
2022-12-08T05:10:29.963Z,26.50
2022-12-08T05:12:58.740Z,26.90
2022-12-08T05:15:25.767Z,27.02
2022-12-08T05:17:52.464Z,26.13
2022-12-08T05:20:19.256Z,25.73
2022-12-08T05:22:46.007Z,26.25
2022-12-08T05:25:12.809Z,26.40
2022-12-08T05:27:39.515Z,27.42
2022-12-08T05:30:07.167Z,26.70
2022-12-08T05:32:34.132Z,27.30
2022-12-08T05:35:00.882Z,25.65
2022-12-08T05:37:27.751Z,25.00
2022-12-08T05:39:54.538Z,26.35
2022-12-08T05:42:24.768Z,24.88
2022-12-08T05:44:52.574Z,26.58
2022-12-08T05:47:19.614Z,24.23
2022-12-08T05:49:46.441Z,25.25
2022-12-08T05:52:13.393Z,25.98
2022-12-08T05:54:40.137Z,25.83
2022-12-08T05:57:06.930Z,27.08
2022-12-08T05:59:33.818Z,27.10
2022-12-08T06:02:00.759Z,25.48
2022-12-08T06:04:27.633Z,25.10
2022-12-08T06:06:54.428Z,26.83
2022-12-08T06:09:21.303Z,26.58
2022-12-08T06:11:48.117Z,28.60
2022-12-08T06:14:14.843Z,28.13
2022-12-08T06:16:41.630Z,28.73
2022-12-08T06:19:08.504Z,28.63
2022-12-08T06:21:35.299Z,27.67
2022-12-08T06:24:01.995Z,26.73
2022-12-08T06:26:28.998Z,29.27
2022-12-08T06:28:55.771Z,28.73
2022-12-08T06:31:24.701Z,28.33
2022-12-08T06:33:52.098Z,29.17
2022-12-08T06:36:21.400Z,28.08
2022-12-08T06:38:48.397Z,28.60
2022-12-08T06:41:15.222Z,28.67
2022-12-08T06:43:42.611Z,29.50
2022-12-08T06:46:12.852Z,28.90
2022-12-08T06:48:39.744Z,29.73
2022-12-08T06:51:09.674Z,28.27
2022-12-08T06:53:36.710Z,30.63
2022-12-08T06:56:03.922Z,31.33
2022-12-08T06:58:30.963Z,31.40
2022-12-08T07:00:57.768Z,29.90
2022-12-08T07:03:24.550Z,31.30
2022-12-08T07:06:00.239Z,31.35
2022-12-08T07:08:30.300Z,30.17
2022-12-08T07:10:57.127Z,30.30
2022-12-08T07:13:23.989Z,30.35
2022-12-08T07:15:50.788Z,30.85
2022-12-08T07:18:17.651Z,30.90
2022-12-08T07:20:44.409Z,30.65
2022-12-08T07:23:11.163Z,31.83
2022-12-08T07:25:37.961Z,30.85
2022-12-08T07:28:09.103Z,30.73
2022-12-08T07:30:35.954Z,30.42
2022-12-08T07:33:04.956Z,31.45
2022-12-08T07:35:34.211Z,33.28
2022-12-08T07:38:01.769Z,30.80
2022-12-08T07:40:28.542Z,31.33
2022-12-08T07:42:55.369Z,32.05
2022-12-08T07:45:25.683Z,31.92
2022-12-08T07:47:56.600Z,31.45
2022-12-08T07:50:23.306Z,31.98
2022-12-08T07:52:50.049Z,28.23
2022-12-08T07:55:17.005Z,31.05
2022-12-08T07:57:43.755Z,30.00
2022-12-08T08:00:11.275Z,33.92
2022-12-08T08:02:38.145Z,33.08
2022-12-08T08:05:05.444Z,30.08
2022-12-08T08:07:32.600Z,31.00
2022-12-08T08:09:59.419Z,30.85
2022-12-08T08:12:33.629Z,29.42
2022-12-08T08:15:01.497Z,30.45
2022-12-08T08:17:29.839Z,29.98
2022-12-08T08:19:57.304Z,31.40
2022-12-08T08:22:26.071Z,32.60
2022-12-08T08:24:53.282Z,31.92
2022-12-08T08:27:20.621Z,31.95
2022-12-08T08:29:47.447Z,32.63
2022-12-08T08:32:14.119Z,33.65
2022-12-08T08:34:40.828Z,33.53
2022-12-08T08:37:07.683Z,34.05
2022-12-08T08:39:34.634Z,33.70
2022-12-08T08:42:01.386Z,35.50
2022-12-08T08:44:28.370Z,34.95
2022-12-08T08:46:55.190Z,37.63
2022-12-08T08:49:22.050Z,35.08
2022-12-08T08:51:49.034Z,33.00
2022-12-08T08:54:15.859Z,35.40
2022-12-08T08:56:42.623Z,33.53
2022-12-08T08:59:12.304Z,34.72
2022-12-08T09:01:39.157Z,32.80
2022-12-08T09:04:06.157Z,34.17
2022-12-08T09:06:33.149Z,35.65
2022-12-08T09:08:59.922Z,32.92
2022-12-08T09:11:26.741Z,33.83
2022-12-08T09:13:54.901Z,32.78
2022-12-08T09:16:22.742Z,30.77
2022-12-08T09:18:49.766Z,33.15
2022-12-08T09:21:26.118Z,31.65
2022-12-08T09:23:57.989Z,30.52
2022-12-08T09:26:26.967Z,29.45
2022-12-08T09:28:55.244Z,30.85
2022-12-08T09:31:23.371Z,30.50
2022-12-08T09:33:53.676Z,30.80
2022-12-08T09:36:20.797Z,28.98
2022-12-08T09:38:49.130Z,30.45
2022-12-08T09:41:39.290Z,28.45
2022-12-08T09:44:33.838Z,29.88
2022-12-08T09:47:03.698Z,29.58
2022-12-08T09:49:39.618Z,29.55
2022-12-08T09:52:19.038Z,30.23
2022-12-08T09:54:45.839Z,29.67
2022-12-08T09:57:17.534Z,29.48
2022-12-08T09:59:51.524Z,29.13
2022-12-08T10:02:25.060Z,28.58
2022-12-08T10:04:55.444Z,29.80
2022-12-08T10:07:42.108Z,28.92
2022-12-08T10:10:38.086Z,30.67
2022-12-08T10:13:42.277Z,30.92
2022-12-08T10:16:23.091Z,29.27
2022-12-08T10:19:01.465Z,29.13
2022-12-08T10:21:31.662Z,28.77
2022-12-08T10:24:04.726Z,31.67
2022-12-08T10:26:33.136Z,30.73
2022-12-08T10:29:02.950Z,28.20
2022-12-08T10:31:31.574Z,29.48
2022-12-08T10:34:01.478Z,29.70
2022-12-08T10:36:48.628Z,30.23
2022-12-08T10:39:38.293Z,28.42
2022-12-08T10:42:09.940Z,29.52
2022-12-08T10:44:58.348Z,28.65
2022-12-08T10:47:27.706Z,27.63
2022-12-08T10:50:20.129Z,30.02
2022-12-08T10:53:14.049Z,31.92
2022-12-08T10:55:40.708Z,32.53
2022-12-08T10:58:35.726Z,31.85
2022-12-08T11:01:32.895Z,30.95
2022-12-08T11:04:05.217Z,30.10
2022-12-08T11:06:35.746Z,32.72
2022-12-08T11:09:04.943Z,31.85
2022-12-08T11:11:58.983Z,33.95
2022-12-08T11:14:50.635Z,33.15
2022-12-08T11:17:24.971Z,32.53
2022-12-08T11:20:22.836Z,31.60
2022-12-08T11:22:55.050Z,32.05
2022-12-08T11:25:27.514Z,30.83
2022-12-08T11:27:58.044Z,30.10
2022-12-08T11:30:24.718Z,32.55
2022-12-08T11:33:17.090Z,31.20
2022-12-08T11:35:46.887Z,31.25
2022-12-08T11:38:25.401Z,31.40
2022-12-08T11:41:17.987Z,31.13
2022-12-08T11:43:54.782Z,31.85
2022-12-08T11:46:31.949Z,31.98
2022-12-08T11:49:06.644Z,30.45
2022-12-08T11:51:44.751Z,32.03
2022-12-08T11:54:25.608Z,31.27
2022-12-08T11:57:01.912Z,30.13
2022-12-08T11:59:34.393Z,30.40
2022-12-08T12:02:03.099Z,30.95
2022-12-08T12:04:35.584Z,29.42
2022-12-08T12:07:26.379Z,28.65
2022-12-08T12:10:18.388Z,26.60
2022-12-08T12:12:58.319Z,26.15
2022-12-08T12:16:14.355Z,26.60
2022-12-08T12:18:47.724Z,25.30
2022-12-08T12:21:23.899Z,23.25
2022-12-08T12:23:56.059Z,24.52
2022-12-08T12:26:28.794Z,26.05
2022-12-08T12:28:57.899Z,26.27
2022-12-08T12:31:41.580Z,25.77
2022-12-08T12:34:14.979Z,25.27
2022-12-08T12:36:49.062Z,25.55
2022-12-08T12:39:23.315Z,24.33
2022-12-08T12:41:59.825Z,24.02
2022-12-08T12:44:29.604Z,33.88
2022-12-08T12:46:56.410Z,26.92
2022-12-08T12:49:38.153Z,25.73
2022-12-08T12:52:31.067Z,26.13
2022-12-08T12:54:57.892Z,27.25
2022-12-08T12:57:35.236Z,26.30
2022-12-08T13:00:01.984Z,25.77
2022-12-08T13:02:46.043Z,26.30
2022-12-08T13:05:31.768Z,25.50
2022-12-08T13:08:07.027Z,25.70
2022-12-08T13:10:35.588Z,26.23
2022-12-08T13:13:07.424Z,24.90
2022-12-08T13:15:40.385Z,24.25
2022-12-08T13:18:19.717Z,24.00
2022-12-08T13:20:50.596Z,24.38
2022-12-08T13:24:12.938Z,23.67
2022-12-08T13:26:49.987Z,22.35
2022-12-08T13:29:22.391Z,22.05
2022-12-08T13:31:53.701Z,22.98
2022-12-08T13:34:41.944Z,21.52
2022-12-08T13:37:11.473Z,23.00
2022-12-08T13:39:41.101Z,22.83
2022-12-08T13:42:30.534Z,22.55
2022-12-08T13:45:39.695Z,23.75
2022-12-08T13:50:36.597Z,22.42
2022-12-08T13:57:33.080Z,23.65
2022-12-08T14:00:08.568Z,22.58
2022-12-08T14:02:47.438Z,23.77
2022-12-08T14:05:18.962Z,25.13
2022-12-08T14:07:48.347Z,24.30
2022-12-08T14:10:41.841Z,25.08
2022-12-08T14:13:12.513Z,23.40
2022-12-08T14:15:40.043Z,25.33
2022-12-08T14:18:23.758Z,25.23
2022-12-08T14:21:20.894Z,26.17
2022-12-08T14:23:48.382Z,24.73
2022-12-08T14:26:15.205Z,24.58
2022-12-08T14:28:45.285Z,24.60
2022-12-08T14:31:14.775Z,25.90
2022-12-08T14:33:42.477Z,25.90
2022-12-08T14:36:11.007Z,26.20
2022-12-08T14:38:38.126Z,24.15
2022-12-08T14:41:08.555Z,25.35
2022-12-08T14:43:35.408Z,25.45
2022-12-08T14:46:18.639Z,25.35
2022-12-08T14:48:45.590Z,24.52
2022-12-08T14:51:25.900Z,24.75
2022-12-08T14:54:08.427Z,23.80
2022-12-08T14:56:46.603Z,24.13
2022-12-08T14:59:34.034Z,23.58
2022-12-08T15:02:16.153Z,23.10
2022-12-08T15:04:45.516Z,23.55
2022-12-08T15:07:18.875Z,23.83
2022-12-08T15:09:51.456Z,22.17
2022-12-08T15:12:27.045Z,23.27
2022-12-08T15:15:14.453Z,23.60
2022-12-08T15:17:44.092Z,22.85
2022-12-08T15:20:44.660Z,22.60
2022-12-08T15:23:21.828Z,24.17
2022-12-08T15:25:49.413Z,22.63
2022-12-08T15:28:19.304Z,23.90
2022-12-08T15:30:46.657Z,21.73
2022-12-08T15:33:13.630Z,25.38
2022-12-08T15:35:41.292Z,22.48
2022-12-08T15:38:17.519Z,22.83
2022-12-08T15:40:44.203Z,23.85
2022-12-08T15:43:14.084Z,23.80
2022-12-08T15:45:50.517Z,24.60
2022-12-08T15:48:29.756Z,25.65
2022-12-08T15:50:57.274Z,24.27
2022-12-08T15:53:24.063Z,25.35
2022-12-08T15:56:25.569Z,24.45
2022-12-08T15:58:53.606Z,24.20
2022-12-08T16:01:21.217Z,24.35
2022-12-08T16:09:38.825Z,24.38
2022-12-08T16:18:26.754Z,25.40
2022-12-08T16:23:43.457Z,24.52
2022-12-08T16:26:28.582Z,25.25
2022-12-08T16:29:03.590Z,25.75
2022-12-08T16:31:31.114Z,26.35
2022-12-08T16:33:57.880Z,25.48
2022-12-08T16:36:24.750Z,24.75
2022-12-08T16:38:51.561Z,25.65
2022-12-08T16:41:36.763Z,26.08
2022-12-08T16:44:06.417Z,25.42
2022-12-08T16:46:33.233Z,26.25
2022-12-08T16:49:00.082Z,26.58
2022-12-08T16:51:27.615Z,27.05
2022-12-08T16:53:55.480Z,26.38
2022-12-08T16:56:28.734Z,25.48
2022-12-08T16:58:57.377Z,24.77
2022-12-08T17:01:24.327Z,24.42
2022-12-08T17:04:14.380Z,26.50
2022-12-08T17:06:37.834Z,26.00
2022-12-08T17:09:05.129Z,25.83
2022-12-08T17:11:37.483Z,26.42
2022-12-08T17:14:09.290Z,25.95
2022-12-08T17:16:36.310Z,28.45
2022-12-08T17:19:03.185Z,26.65
2022-12-08T17:21:30.244Z,28.13
2022-12-08T17:23:57.005Z,25.95
2022-12-08T17:26:24.085Z,26.67
2022-12-08T17:29:06.061Z,26.23
2022-12-08T17:31:33.140Z,25.85
2022-12-08T17:34:05.739Z,26.58
2022-12-08T17:36:32.540Z,25.83
2022-12-08T17:39:01.133Z,26.58
2022-12-08T17:41:29.419Z,24.50
2022-12-08T17:43:56.609Z,27.65
2022-12-08T17:46:24.344Z,29.42
2022-12-08T17:48:51.899Z,27.85
2022-12-08T17:51:19.244Z,26.58
2022-12-08T17:53:45.979Z,27.35
2022-12-08T17:56:18.834Z,27.45
2022-12-08T17:58:49.895Z,28.58
2022-12-08T18:01:21.705Z,27.23
2022-12-08T18:03:48.577Z,27.65
2022-12-08T18:06:17.423Z,27.23
2022-12-08T18:08:44.628Z,27.67
2022-12-08T18:11:14.699Z,28.23
2022-12-08T18:13:41.944Z,27.42
2022-12-08T18:16:09.080Z,27.63
2022-12-08T18:18:35.841Z,26.67
2022-12-08T18:21:02.582Z,28.52
2022-12-08T18:23:29.442Z,28.90
2022-12-08T18:25:56.147Z,26.67
2022-12-08T18:28:23.707Z,28.75
2022-12-08T18:30:50.910Z,27.88
2022-12-08T18:33:17.631Z,26.33
2022-12-08T18:35:44.436Z,27.02
2022-12-08T18:38:11.450Z,27.50
2022-12-08T18:40:38.268Z,27.73
2022-12-08T18:43:05.100Z,28.25
2022-12-08T18:45:31.838Z,27.73
2022-12-08T18:47:58.594Z,27.77
2022-12-08T18:50:25.266Z,29.00
2022-12-08T18:52:52.126Z,27.73
2022-12-08T18:55:18.884Z,29.35
2022-12-08T18:57:46.070Z,29.40
2022-12-08T19:00:15.563Z,28.50
2022-12-08T19:02:42.383Z,28.23
2022-12-08T19:05:12.032Z,28.13
2022-12-08T19:07:39.100Z,29.48
2022-12-08T19:10:06.925Z,28.15
2022-12-08T19:12:34.061Z,28.67
2022-12-08T19:15:01.039Z,27.08
2022-12-08T19:17:29.683Z,27.40
2022-12-08T19:19:56.547Z,27.67
2022-12-08T19:22:23.525Z,27.80
2022-12-08T19:24:50.294Z,28.35
2022-12-08T19:27:17.212Z,28.42
2022-12-08T19:29:44.261Z,27.80
2022-12-08T19:32:11.032Z,28.15
2022-12-08T19:34:37.838Z,28.63
2022-12-08T19:37:04.665Z,27.17
2022-12-08T19:39:49.832Z,26.80
2022-12-08T19:42:38.015Z,28.07
2022-12-08T19:45:08.469Z,27.70
2022-12-08T19:47:35.346Z,28.80
2022-12-08T19:50:20.771Z,29.75
2022-12-08T19:52:47.479Z,28.77
2022-12-08T19:55:14.394Z,29.60
2022-12-08T19:57:41.688Z,31.67
2022-12-08T20:00:10.525Z,30.08
2022-12-08T20:02:37.522Z,30.60
2022-12-08T20:05:05.899Z,29.85
2022-12-08T20:07:32.722Z,30.08
2022-12-08T20:09:59.470Z,28.77
2022-12-08T20:12:26.595Z,29.05
2022-12-08T20:14:53.370Z,29.50
2022-12-08T20:17:20.149Z,29.45
2022-12-08T20:19:47.208Z,29.55
2022-12-08T20:22:13.958Z,29.73
2022-12-08T20:24:40.724Z,30.10
2022-12-08T20:27:07.637Z,28.00
2022-12-08T20:29:34.433Z,28.80
2022-12-08T20:32:01.279Z,28.85
2022-12-08T20:34:28.082Z,27.67
2022-12-08T20:36:54.946Z,28.75
2022-12-08T20:39:21.729Z,29.88
2022-12-08T20:41:49.298Z,29.02
2022-12-08T20:44:16.277Z,29.63
2022-12-08T20:46:49.055Z,28.15
2022-12-08T20:49:16.482Z,29.25
2022-12-08T20:51:44.479Z,30.05
2022-12-08T20:54:11.525Z,27.27
2022-12-08T20:56:42.111Z,29.02
2022-12-08T20:59:17.837Z,28.02
2022-12-08T21:01:45.156Z,29.85
2022-12-08T21:04:13.442Z,28.55
2022-12-08T21:06:40.354Z,28.58
2022-12-08T21:09:07.705Z,28.30
2022-12-08T21:11:35.580Z,28.95
2022-12-08T21:14:02.805Z,28.45
2022-12-08T21:16:30.001Z,30.00
2022-12-08T21:18:57.096Z,30.35
2022-12-08T21:21:24.160Z,27.60
2022-12-08T21:23:51.023Z,28.05
2022-12-08T21:26:20.269Z,29.95
2022-12-08T21:28:47.672Z,29.38
2022-12-08T21:31:18.838Z,31.15
2022-12-08T21:33:45.815Z,28.27
2022-12-08T21:36:15.027Z,29.05
2022-12-08T21:38:42.633Z,28.27
2022-12-08T21:41:12.909Z,29.80
2022-12-08T21:43:39.775Z,28.67
2022-12-08T21:46:06.944Z,29.65
2022-12-08T21:48:33.807Z,29.20
2022-12-08T21:51:05.015Z,28.25
2022-12-08T21:53:32.050Z,29.38
2022-12-08T21:55:58.846Z,29.27
2022-12-08T21:58:26.393Z,29.35
2022-12-08T22:00:53.567Z,29.23
2022-12-08T22:03:20.464Z,28.45
2022-12-08T22:05:47.500Z,29.33
2022-12-08T22:08:14.484Z,29.15
2022-12-08T22:10:46.292Z,29.98
2022-12-08T22:13:13.210Z,31.45
2022-12-08T22:15:39.975Z,28.73
2022-12-08T22:18:07.008Z,30.75
2022-12-08T22:20:35.382Z,29.88
2022-12-08T22:23:04.162Z,29.90
2022-12-08T22:25:30.980Z,29.85
2022-12-08T22:27:57.798Z,29.83
2022-12-08T22:30:24.553Z,29.77
2022-12-08T22:32:51.318Z,29.33
2022-12-08T22:35:18.212Z,31.83
2022-12-08T22:37:48.430Z,31.33
2022-12-08T22:40:15.605Z,32.55
2022-12-08T22:42:42.313Z,29.98
2022-12-08T22:45:09.464Z,30.83
2022-12-08T22:47:36.326Z,32.55
2022-12-08T22:50:03.573Z,29.38
2022-12-08T22:52:31.083Z,30.90
2022-12-08T22:54:57.757Z,29.52
2022-12-08T22:57:24.420Z,29.73
2022-12-08T22:59:51.205Z,29.15
2022-12-08T23:02:17.953Z,30.08
2022-12-08T23:04:46.503Z,30.25
2022-12-08T23:07:13.566Z,29.92
2022-12-08T23:09:41.100Z,29.20
2022-12-08T23:12:08.234Z,30.15
2022-12-08T23:14:35.412Z,30.60
2022-12-08T23:17:02.155Z,31.20
2022-12-08T23:19:28.874Z,30.58
2022-12-08T23:21:55.639Z,30.38
2022-12-08T23:24:22.310Z,30.90
2022-12-08T23:26:51.906Z,31.50
2022-12-08T23:29:18.775Z,31.30
2022-12-08T23:31:45.822Z,31.38
2022-12-08T23:34:12.688Z,32.92
2022-12-08T23:36:39.498Z,32.28
2022-12-08T23:39:06.797Z,33.83
2022-12-08T23:41:33.735Z,34.40
2022-12-08T23:44:00.600Z,32.97
2022-12-08T23:46:27.549Z,34.00
2022-12-08T23:48:54.366Z,34.38
2022-12-08T23:51:21.663Z,33.40
2022-12-08T23:53:48.384Z,34.75
2022-12-08T23:56:16.912Z,36.10
2022-12-08T23:58:45.076Z,36.03
